sensor_id;sensor_type;location;lat;lon;timestamp;P1;durP1;ratioP1;P2;durP2;ratioP2
47403;SDS011;33157;51.508;4.288;2023-08-31T00:01:29;12.27;;;5.45;;
47403;SDS011;33157;51.508;4.288;2023-08-31T00:06:30;9.75;;;5.70;;
47403;SDS011;33157;51.508;4.288;2023-08-31T00:11:30;13.13;;;6.47;;
47403;SDS011;33157;51.508;4.288;2023-08-31T00:16:31;17.08;;;6.00;;
47403;SDS011;33157;51.508;4.288;2023-08-31T00:21:33;14.27;;;6.60;;
47403;SDS011;33157;51.508;4.288;2023-08-31T00:26:33;10.32;;;6.63;;
47403;SDS011;33157;51.508;4.288;2023-08-31T00:31:34;9.35;;;6.22;;
47403;SDS011;33157;51.508;4.288;2023-08-31T00:36:35;10.48;;;6.25;;
47403;SDS011;33157;51.508;4.288;2023-08-31T00:41:35;11.10;;;6.55;;
47403;SDS011;33157;51.508;4.288;2023-08-31T00:46:36;11.50;;;8.00;;
47403;SDS011;33157;51.508;4.288;2023-08-31T00:51:36;15.48;;;8.68;;
47403;SDS011;33157;51.508;4.288;2023-08-31T00:56:37;11.70;;;9.35;;
47403;SDS011;33157;51.508;4.288;2023-08-31T01:01:51;15.95;;;8.27;;
47403;SDS011;33157;51.508;4.288;2023-08-31T01:07:10;15.95;;;8.10;;
47403;SDS011;33157;51.508;4.288;2023-08-31T01:12:22;13.15;;;9.65;;
47403;SDS011;33157;51.508;4.288;2023-08-31T01:17:30;14.95;;;9.38;;
47403;SDS011;33157;51.508;4.288;2023-08-31T01:22:38;14.43;;;7.82;;
47403;SDS011;33157;51.508;4.288;2023-08-31T01:27:40;12.48;;;7.88;;
47403;SDS011;33157;51.508;4.288;2023-08-31T01:32:44;13.65;;;6.78;;
47403;SDS011;33157;51.508;4.288;2023-08-31T01:37:47;15.13;;;8.68;;
47403;SDS011;33157;51.508;4.288;2023-08-31T01:42:49;18.23;;;8.07;;
47403;SDS011;33157;51.508;4.288;2023-08-31T01:47:50;12.00;;;7.95;;
47403;SDS011;33157;51.508;4.288;2023-08-31T01:52:51;11.57;;;7.13;;
47403;SDS011;33157;51.508;4.288;2023-08-31T01:57:53;12.00;;;7.72;;
47403;SDS011;33157;51.508;4.288;2023-08-31T02:02:54;11.43;;;8.90;;
47403;SDS011;33157;51.508;4.288;2023-08-31T02:07:54;12.23;;;9.40;;
47403;SDS011;33157;51.508;4.288;2023-08-31T02:12:55;15.52;;;9.85;;
47403;SDS011;33157;51.508;4.288;2023-08-31T02:17:55;14.85;;;8.82;;
47403;SDS011;33157;51.508;4.288;2023-08-31T02:22:56;18.08;;;9.05;;
47403;SDS011;33157;51.508;4.288;2023-08-31T02:27:56;17.35;;;8.57;;
47403;SDS011;33157;51.508;4.288;2023-08-31T02:32:57;14.00;;;8.10;;
47403;SDS011;33157;51.508;4.288;2023-08-31T02:37:57;14.20;;;8.63;;
47403;SDS011;33157;51.508;4.288;2023-08-31T02:42:58;15.05;;;7.45;;
47403;SDS011;33157;51.508;4.288;2023-08-31T02:47:58;11.23;;;6.88;;
47403;SDS011;33157;51.508;4.288;2023-08-31T02:52:59;14.38;;;7.80;;
47403;SDS011;33157;51.508;4.288;2023-08-31T02:57:59;14.73;;;7.10;;
47403;SDS011;33157;51.508;4.288;2023-08-31T03:03:01;13.93;;;7.13;;
47403;SDS011;33157;51.508;4.288;2023-08-31T03:08:01;12.73;;;6.78;;
47403;SDS011;33157;51.508;4.288;2023-08-31T03:13:02;12.05;;;5.65;;
47403;SDS011;33157;51.508;4.288;2023-08-31T03:18:03;17.52;;;6.10;;
47403;SDS011;33157;51.508;4.288;2023-08-31T03:23:03;14.98;;;5.50;;
47403;SDS011;33157;51.508;4.288;2023-08-31T03:28:04;12.18;;;5.47;;
47403;SDS011;33157;51.508;4.288;2023-08-31T03:33:05;10.23;;;5.53;;
47403;SDS011;33157;51.508;4.288;2023-08-31T03:38:06;8.65;;;5.30;;
47403;SDS011;33157;51.508;4.288;2023-08-31T03:43:06;12.63;;;6.05;;
47403;SDS011;33157;51.508;4.288;2023-08-31T03:48:07;8.93;;;5.60;;
47403;SDS011;33157;51.508;4.288;2023-08-31T03:53:07;13.35;;;6.95;;
47403;SDS011;33157;51.508;4.288;2023-08-31T03:58:08;16.15;;;6.38;;
47403;SDS011;33157;51.508;4.288;2023-08-31T04:03:09;10.85;;;5.78;;
47403;SDS011;33157;51.508;4.288;2023-08-31T04:08:09;11.30;;;5.93;;
47403;SDS011;33157;51.508;4.288;2023-08-31T04:13:10;10.82;;;6.15;;
47403;SDS011;33157;51.508;4.288;2023-08-31T04:18:10;15.02;;;7.25;;
47403;SDS011;33157;51.508;4.288;2023-08-31T04:23:11;14.80;;;7.40;;
47403;SDS011;33157;51.508;4.288;2023-08-31T04:28:11;18.58;;;8.77;;
47403;SDS011;33157;51.508;4.288;2023-08-31T04:33:12;16.95;;;8.85;;
47403;SDS011;33157;51.508;4.288;2023-08-31T04:38:12;15.88;;;10.25;;
47403;SDS011;33157;51.508;4.288;2023-08-31T04:43:13;14.07;;;9.90;;
47403;SDS011;33157;51.508;4.288;2023-08-31T04:48:13;18.40;;;9.13;;
47403;SDS011;33157;51.508;4.288;2023-08-31T04:53:15;21.23;;;10.65;;
47403;SDS011;33157;51.508;4.288;2023-08-31T04:58:16;16.13;;;9.93;;
47403;SDS011;33157;51.508;4.288;2023-08-31T05:03:16;18.55;;;10.48;;
47403;SDS011;33157;51.508;4.288;2023-08-31T05:08:17;15.82;;;9.80;;
47403;SDS011;33157;51.508;4.288;2023-08-31T05:13:17;15.35;;;9.00;;
47403;SDS011;33157;51.508;4.288;2023-08-31T05:18:17;15.43;;;9.02;;
47403;SDS011;33157;51.508;4.288;2023-08-31T05:23:18;14.88;;;9.27;;
47403;SDS011;33157;51.508;4.288;2023-08-31T05:28:18;20.08;;;9.82;;
47403;SDS011;33157;51.508;4.288;2023-08-31T05:33:19;20.25;;;9.73;;
47403;SDS011;33157;51.508;4.288;2023-08-31T05:38:19;21.30;;;10.27;;
47403;SDS011;33157;51.508;4.288;2023-08-31T05:43:20;21.27;;;10.95;;
47403;SDS011;33157;51.508;4.288;2023-08-31T05:48:20;19.40;;;9.90;;
47403;SDS011;33157;51.508;4.288;2023-08-31T05:53:21;19.75;;;10.55;;
47403;SDS011;33157;51.508;4.288;2023-08-31T05:58:21;18.60;;;10.80;;
47403;SDS011;33157;51.508;4.288;2023-08-31T06:03:23;19.08;;;10.88;;
47403;SDS011;33157;51.508;4.288;2023-08-31T06:08:23;16.85;;;10.23;;
47403;SDS011;33157;51.508;4.288;2023-08-31T06:13:24;20.60;;;11.02;;
47403;SDS011;33157;51.508;4.288;2023-08-31T06:18:24;21.88;;;10.60;;
47403;SDS011;33157;51.508;4.288;2023-08-31T06:23:26;16.52;;;9.60;;
47403;SDS011;33157;51.508;4.288;2023-08-31T06:28:26;24.38;;;11.18;;
47403;SDS011;33157;51.508;4.288;2023-08-31T06:33:26;19.90;;;10.13;;
47403;SDS011;33157;51.508;4.288;2023-08-31T06:38:27;18.43;;;9.83;;
47403;SDS011;33157;51.508;4.288;2023-08-31T06:43:27;19.35;;;9.43;;
47403;SDS011;33157;51.508;4.288;2023-08-31T06:48:28;14.63;;;8.60;;
47403;SDS011;33157;51.508;4.288;2023-08-31T06:53:28;21.30;;;9.15;;
47403;SDS011;33157;51.508;4.288;2023-08-31T06:58:29;21.25;;;8.77;;
47403;SDS011;33157;51.508;4.288;2023-08-31T07:03:30;17.08;;;8.38;;
47403;SDS011;33157;51.508;4.288;2023-08-31T07:08:30;13.98;;;7.82;;
47403;SDS011;33157;51.508;4.288;2023-08-31T07:13:31;18.63;;;9.73;;
47403;SDS011;33157;51.508;4.288;2023-08-31T07:18:32;19.75;;;9.00;;
47403;SDS011;33157;51.508;4.288;2023-08-31T07:23:32;14.40;;;7.88;;
47403;SDS011;33157;51.508;4.288;2023-08-31T07:28:33;15.35;;;7.38;;
47403;SDS011;33157;51.508;4.288;2023-08-31T07:33:34;14.70;;;7.05;;
47403;SDS011;33157;51.508;4.288;2023-08-31T07:38:35;15.98;;;7.90;;
47403;SDS011;33157;51.508;4.288;2023-08-31T07:43:35;15.63;;;7.28;;
47403;SDS011;33157;51.508;4.288;2023-08-31T07:48:36;15.43;;;6.90;;
47403;SDS011;33157;51.508;4.288;2023-08-31T07:53:36;14.13;;;6.68;;
47403;SDS011;33157;51.508;4.288;2023-08-31T07:58:36;14.10;;;4.97;;
47403;SDS011;33157;51.508;4.288;2023-08-31T08:03:37;10.75;;;4.55;;
47403;SDS011;33157;51.508;4.288;2023-08-31T08:08:37;10.83;;;4.43;;
47403;SDS011;33157;51.508;4.288;2023-08-31T08:13:38;8.63;;;4.53;;
47403;SDS011;33157;51.508;4.288;2023-08-31T08:18:38;12.30;;;5.10;;
47403;SDS011;33157;51.508;4.288;2023-08-31T08:23:39;10.82;;;4.97;;
47403;SDS011;33157;51.508;4.288;2023-08-31T08:28:39;13.85;;;5.22;;
47403;SDS011;33157;51.508;4.288;2023-08-31T08:33:40;18.75;;;5.60;;
47403;SDS011;33157;51.508;4.288;2023-08-31T08:38:40;7.85;;;4.30;;
47403;SDS011;33157;51.508;4.288;2023-08-31T08:43:42;8.53;;;3.67;;
47403;SDS011;33157;51.508;4.288;2023-08-31T08:48:46;9.65;;;3.50;;
47403;SDS011;33157;51.508;4.288;2023-08-31T08:53:47;12.48;;;4.57;;
47403;SDS011;33157;51.508;4.288;2023-08-31T08:58:48;9.97;;;3.80;;
47403;SDS011;33157;51.508;4.288;2023-08-31T09:03:49;9.33;;;3.30;;
47403;SDS011;33157;51.508;4.288;2023-08-31T09:08:56;9.30;;;3.30;;
47403;SDS011;33157;51.508;4.288;2023-08-31T09:13:57;9.57;;;3.30;;
47403;SDS011;33157;51.508;4.288;2023-08-31T09:18:58;7.97;;;3.03;;
47403;SDS011;33157;51.508;4.288;2023-08-31T09:23:59;7.60;;;3.23;;
47403;SDS011;33157;51.508;4.288;2023-08-31T09:28:59;9.40;;;3.10;;
47403;SDS011;33157;51.508;4.288;2023-08-31T09:33:59;7.50;;;2.83;;
47403;SDS011;33157;51.508;4.288;2023-08-31T09:39:01;10.55;;;2.92;;
47403;SDS011;33157;51.508;4.288;2023-08-31T09:44:14;7.47;;;2.67;;
47403;SDS011;33157;51.508;4.288;2023-08-31T09:49:16;16.00;;;3.20;;
47403;SDS011;33157;51.508;4.288;2023-08-31T09:54:17;9.75;;;2.92;;
47403;SDS011;33157;51.508;4.288;2023-08-31T09:59:19;3.67;;;1.55;;
47403;SDS011;33157;51.508;4.288;2023-08-31T10:04:20;5.33;;;2.17;;
47403;SDS011;33157;51.508;4.288;2023-08-31T10:09:20;7.07;;;2.50;;
47403;SDS011;33157;51.508;4.288;2023-08-31T10:14:21;7.00;;;2.50;;
47403;SDS011;33157;51.508;4.288;2023-08-31T10:19:22;7.87;;;2.80;;
47403;SDS011;33157;51.508;4.288;2023-08-31T10:24:55;6.50;;;2.90;;
47403;SDS011;33157;51.508;4.288;2023-08-31T10:30:16;9.10;;;3.20;;
47403;SDS011;33157;51.508;4.288;2023-08-31T10:35:40;8.18;;;3.20;;
47403;SDS011;33157;51.508;4.288;2023-08-31T10:40:46;8.85;;;2.30;;
47403;SDS011;33157;51.508;4.288;2023-08-31T10:51:16;8.73;;;2.85;;
47403;SDS011;33157;51.508;4.288;2023-08-31T10:56:18;10.43;;;2.75;;
47403;SDS011;33157;51.508;4.288;2023-08-31T11:01:50;7.10;;;2.42;;
47403;SDS011;33157;51.508;4.288;2023-08-31T11:12:14;11.50;;;4.20;;
47403;SDS011;33157;51.508;4.288;2023-08-31T11:17:14;6.47;;;2.30;;
47403;SDS011;33157;51.508;4.288;2023-08-31T11:22:15;6.20;;;2.60;;
47403;SDS011;33157;51.508;4.288;2023-08-31T11:27:18;9.95;;;2.83;;
47403;SDS011;33157;51.508;4.288;2023-08-31T11:32:22;11.00;;;2.72;;
47403;SDS011;33157;51.508;4.288;2023-08-31T11:37:24;7.00;;;2.88;;
47403;SDS011;33157;51.508;4.288;2023-08-31T11:42:28;8.15;;;2.28;;
47403;SDS011;33157;51.508;4.288;2023-08-31T11:47:29;9.52;;;2.65;;
47403;SDS011;33157;51.508;4.288;2023-08-31T11:52:32;7.82;;;2.90;;
47403;SDS011;33157;51.508;4.288;2023-08-31T11:57:33;10.52;;;3.10;;
47403;SDS011;33157;51.508;4.288;2023-08-31T12:02:36;8.10;;;3.38;;
47403;SDS011;33157;51.508;4.288;2023-08-31T12:07:40;6.80;;;3.05;;
47403;SDS011;33157;51.508;4.288;2023-08-31T12:12:41;12.90;;;3.40;;
47403;SDS011;33157;51.508;4.288;2023-08-31T12:17:42;5.90;;;2.25;;
47403;SDS011;33157;51.508;4.288;2023-08-31T12:22:45;9.00;;;2.78;;
47403;SDS011;33157;51.508;4.288;2023-08-31T12:27:45;6.93;;;2.10;;
47403;SDS011;33157;51.508;4.288;2023-08-31T12:32:46;9.40;;;2.67;;
47403;SDS011;33157;51.508;4.288;2023-08-31T12:37:46;7.55;;;2.67;;
47403;SDS011;33157;51.508;4.288;2023-08-31T12:42:47;8.73;;;2.50;;
47403;SDS011;33157;51.508;4.288;2023-08-31T12:47:47;5.15;;;2.35;;
47403;SDS011;33157;51.508;4.288;2023-08-31T12:52:47;7.33;;;2.53;;
47403;SDS011;33157;51.508;4.288;2023-08-31T12:57:51;10.57;;;2.20;;
47403;SDS011;33157;51.508;4.288;2023-08-31T13:02:51;4.68;;;2.10;;
47403;SDS011;33157;51.508;4.288;2023-08-31T13:08:01;5.47;;;2.17;;
47403;SDS011;33157;51.508;4.288;2023-08-31T13:13:01;7.18;;;2.17;;
47403;SDS011;33157;51.508;4.288;2023-08-31T13:18:03;7.47;;;2.15;;
47403;SDS011;33157;51.508;4.288;2023-08-31T13:28:04;6.87;;;1.97;;
47403;SDS011;33157;51.508;4.288;2023-08-31T13:33:06;4.13;;;1.55;;
47403;SDS011;33157;51.508;4.288;2023-08-31T13:38:07;7.93;;;1.98;;
47403;SDS011;33157;51.508;4.288;2023-08-31T13:43:08;5.80;;;1.90;;
47403;SDS011;33157;51.508;4.288;2023-08-31T13:48:08;5.13;;;1.80;;
47403;SDS011;33157;51.508;4.288;2023-08-31T13:53:09;4.78;;;1.95;;
47403;SDS011;33157;51.508;4.288;2023-08-31T13:58:09;6.70;;;1.77;;
47403;SDS011;33157;51.508;4.288;2023-08-31T14:03:10;9.23;;;2.08;;
47403;SDS011;33157;51.508;4.288;2023-08-31T14:08:13;4.97;;;2.22;;
47403;SDS011;33157;51.508;4.288;2023-08-31T14:13:14;6.28;;;1.85;;
47403;SDS011;33157;51.508;4.288;2023-08-31T14:18:14;5.53;;;2.03;;
47403;SDS011;33157;51.508;4.288;2023-08-31T14:23:15;7.85;;;2.70;;
47403;SDS011;33157;51.508;4.288;2023-08-31T14:28:16;8.23;;;2.50;;
47403;SDS011;33157;51.508;4.288;2023-08-31T14:33:16;6.13;;;1.53;;
47403;SDS011;33157;51.508;4.288;2023-08-31T14:38:20;9.43;;;3.37;;
47403;SDS011;33157;51.508;4.288;2023-08-31T14:43:21;7.93;;;2.50;;
47403;SDS011;33157;51.508;4.288;2023-08-31T14:48:21;6.10;;;2.28;;
47403;SDS011;33157;51.508;4.288;2023-08-31T14:53:22;7.63;;;3.08;;
47403;SDS011;33157;51.508;4.288;2023-08-31T14:58:23;5.30;;;2.15;;
47403;SDS011;33157;51.508;4.288;2023-08-31T15:03:23;8.15;;;2.53;;
47403;SDS011;33157;51.508;4.288;2023-08-31T15:08:34;7.65;;;2.38;;
47403;SDS011;33157;51.508;4.288;2023-08-31T15:13:42;8.15;;;2.65;;
47403;SDS011;33157;51.508;4.288;2023-08-31T15:18:43;8.20;;;2.47;;
47403;SDS011;33157;51.508;4.288;2023-08-31T15:23:47;7.25;;;2.42;;
47403;SDS011;33157;51.508;4.288;2023-08-31T15:28:47;8.68;;;2.25;;
47403;SDS011;33157;51.508;4.288;2023-08-31T15:33:48;8.00;;;2.15;;
47403;SDS011;33157;51.508;4.288;2023-08-31T15:38:48;11.73;;;3.33;;
47403;SDS011;33157;51.508;4.288;2023-08-31T15:43:49;9.65;;;2.63;;
47403;SDS011;33157;51.508;4.288;2023-08-31T15:48:50;5.55;;;2.15;;
47403;SDS011;33157;51.508;4.288;2023-08-31T15:53:52;12.63;;;2.17;;
47403;SDS011;33157;51.508;4.288;2023-08-31T15:58:52;10.00;;;2.57;;
47403;SDS011;33157;51.508;4.288;2023-08-31T16:03:53;6.60;;;2.22;;
47403;SDS011;33157;51.508;4.288;2023-08-31T16:08:53;5.40;;;1.73;;
47403;SDS011;33157;51.508;4.288;2023-08-31T16:13:53;8.75;;;2.20;;
47403;SDS011;33157;51.508;4.288;2023-08-31T16:18:54;5.15;;;1.60;;
47403;SDS011;33157;51.508;4.288;2023-08-31T16:23:55;9.02;;;2.10;;
47403;SDS011;33157;51.508;4.288;2023-08-31T16:28:55;8.23;;;2.00;;
47403;SDS011;33157;51.508;4.288;2023-08-31T16:33:55;6.87;;;2.10;;
47403;SDS011;33157;51.508;4.288;2023-08-31T16:38:56;6.03;;;2.20;;
47403;SDS011;33157;51.508;4.288;2023-08-31T16:43:57;12.35;;;3.50;;
47403;SDS011;33157;51.508;4.288;2023-08-31T16:48:57;12.90;;;3.25;;
47403;SDS011;33157;51.508;4.288;2023-08-31T16:53:58;15.75;;;3.65;;
47403;SDS011;33157;51.508;4.288;2023-08-31T16:58:59;16.00;;;3.90;;
47403;SDS011;33157;51.508;4.288;2023-08-31T17:03:59;11.70;;;2.90;;
47403;SDS011;33157;51.508;4.288;2023-08-31T17:09:00;16.75;;;3.47;;
47403;SDS011;33157;51.508;4.288;2023-08-31T17:14:03;15.43;;;3.20;;
47403;SDS011;33157;51.508;4.288;2023-08-31T17:19:04;12.68;;;3.05;;
47403;SDS011;33157;51.508;4.288;2023-08-31T17:24:05;12.45;;;3.10;;
47403;SDS011;33157;51.508;4.288;2023-08-31T17:29:06;14.45;;;3.13;;
47403;SDS011;33157;51.508;4.288;2023-08-31T17:34:06;11.98;;;3.78;;
47403;SDS011;33157;51.508;4.288;2023-08-31T17:39:07;8.20;;;3.45;;
47403;SDS011;33157;51.508;4.288;2023-08-31T17:44:07;11.98;;;2.95;;
47403;SDS011;33157;51.508;4.288;2023-08-31T17:49:08;12.30;;;3.70;;
47403;SDS011;33157;51.508;4.288;2023-08-31T17:54:08;13.80;;;3.30;;
47403;SDS011;33157;51.508;4.288;2023-08-31T17:59:09;10.98;;;3.28;;
47403;SDS011;33157;51.508;4.288;2023-08-31T18:04:15;15.73;;;3.95;;
47403;SDS011;33157;51.508;4.288;2023-08-31T18:09:16;13.98;;;2.80;;
47403;SDS011;33157;51.508;4.288;2023-08-31T18:14:16;10.45;;;3.00;;
47403;SDS011;33157;51.508;4.288;2023-08-31T18:19:17;8.15;;;2.75;;
47403;SDS011;33157;51.508;4.288;2023-08-31T18:24:17;11.88;;;3.15;;
47403;SDS011;33157;51.508;4.288;2023-08-31T18:29:18;9.43;;;2.35;;
47403;SDS011;33157;51.508;4.288;2023-08-31T18:34:19;14.60;;;4.18;;
47403;SDS011;33157;51.508;4.288;2023-08-31T18:39:19;11.85;;;3.38;;
47403;SDS011;33157;51.508;4.288;2023-08-31T18:44:20;10.25;;;2.70;;
47403;SDS011;33157;51.508;4.288;2023-08-31T18:49:22;9.88;;;3.20;;
47403;SDS011;33157;51.508;4.288;2023-08-31T18:54:23;10.23;;;3.10;;
47403;SDS011;33157;51.508;4.288;2023-08-31T18:59:23;7.78;;;2.78;;
47403;SDS011;33157;51.508;4.288;2023-08-31T19:04:25;12.18;;;3.15;;
47403;SDS011;33157;51.508;4.288;2023-08-31T19:09:25;10.13;;;3.00;;
47403;SDS011;33157;51.508;4.288;2023-08-31T19:14:29;11.05;;;3.28;;
47403;SDS011;33157;51.508;4.288;2023-08-31T19:19:29;10.70;;;3.30;;
47403;SDS011;33157;51.508;4.288;2023-08-31T19:24:30;8.65;;;3.42;;
47403;SDS011;33157;51.508;4.288;2023-08-31T19:29:30;10.70;;;4.05;;
47403;SDS011;33157;51.508;4.288;2023-08-31T19:34:31;11.90;;;3.30;;
47403;SDS011;33157;51.508;4.288;2023-08-31T19:39:35;12.15;;;4.07;;
47403;SDS011;33157;51.508;4.288;2023-08-31T19:44:35;9.85;;;3.58;;
47403;SDS011;33157;51.508;4.288;2023-08-31T19:49:36;9.15;;;3.92;;
47403;SDS011;33157;51.508;4.288;2023-08-31T19:54:36;9.50;;;3.28;;
47403;SDS011;33157;51.508;4.288;2023-08-31T19:59:37;13.40;;;3.92;;
47403;SDS011;33157;51.508;4.288;2023-08-31T20:04:37;10.98;;;2.78;;
47403;SDS011;33157;51.508;4.288;2023-08-31T20:09:38;12.30;;;3.13;;
47403;SDS011;33157;51.508;4.288;2023-08-31T20:14:39;8.88;;;3.00;;
47403;SDS011;33157;51.508;4.288;2023-08-31T20:19:39;9.88;;;3.28;;
47403;SDS011;33157;51.508;4.288;2023-08-31T20:24:40;11.77;;;3.05;;
47403;SDS011;33157;51.508;4.288;2023-08-31T20:29:41;8.32;;;2.40;;
47403;SDS011;33157;51.508;4.288;2023-08-31T20:34:45;14.93;;;2.60;;
47403;SDS011;33157;51.508;4.288;2023-08-31T20:39:46;7.70;;;2.40;;
47403;SDS011;33157;51.508;4.288;2023-08-31T20:44:47;7.60;;;2.65;;
47403;SDS011;33157;51.508;4.288;2023-08-31T20:49:47;7.50;;;2.33;;
47403;SDS011;33157;51.508;4.288;2023-08-31T20:54:48;11.23;;;2.58;;
47403;SDS011;33157;51.508;4.288;2023-08-31T20:59:50;7.95;;;2.78;;
47403;SDS011;33157;51.508;4.288;2023-08-31T21:04:50;12.98;;;3.17;;
47403;SDS011;33157;51.508;4.288;2023-08-31T21:09:50;7.90;;;2.70;;
47403;SDS011;33157;51.508;4.288;2023-08-31T21:14:51;9.82;;;3.05;;
47403;SDS011;33157;51.508;4.288;2023-08-31T21:19:51;9.55;;;3.03;;
47403;SDS011;33157;51.508;4.288;2023-08-31T21:24:52;11.07;;;3.78;;
47403;SDS011;33157;51.508;4.288;2023-08-31T21:29:55;7.63;;;2.30;;
47403;SDS011;33157;51.508;4.288;2023-08-31T21:34:56;6.65;;;2.88;;
47403;SDS011;33157;51.508;4.288;2023-08-31T21:39:56;11.82;;;3.22;;
47403;SDS011;33157;51.508;4.288;2023-08-31T21:44:57;8.75;;;3.00;;
47403;SDS011;33157;51.508;4.288;2023-08-31T21:54:59;10.55;;;3.40;;
47403;SDS011;33157;51.508;4.288;2023-08-31T22:00:00;5.70;;;2.70;;
47403;SDS011;33157;51.508;4.288;2023-08-31T22:05:01;9.90;;;3.05;;
47403;SDS011;33157;51.508;4.288;2023-08-31T22:10:05;9.20;;;3.70;;
47403;SDS011;33157;51.508;4.288;2023-08-31T22:15:13;14.07;;;4.55;;
47403;SDS011;33157;51.508;4.288;2023-08-31T22:20:15;13.27;;;4.07;;
47403;SDS011;33157;51.508;4.288;2023-08-31T22:25:16;13.05;;;4.25;;
47403;SDS011;33157;51.508;4.288;2023-08-31T22:30:17;6.88;;;3.40;;
47403;SDS011;33157;51.508;4.288;2023-08-31T22:35:17;13.85;;;3.83;;
47403;SDS011;33157;51.508;4.288;2023-08-31T22:40:18;11.18;;;4.07;;
47403;SDS011;33157;51.508;4.288;2023-08-31T22:45:25;9.43;;;3.58;;
47403;SDS011;33157;51.508;4.288;2023-08-31T22:50:26;12.25;;;3.95;;
47403;SDS011;33157;51.508;4.288;2023-08-31T22:55:26;8.30;;;3.60;;
47403;SDS011;33157;51.508;4.288;2023-08-31T23:00:28;11.50;;;3.85;;
47403;SDS011;33157;51.508;4.288;2023-08-31T23:05:29;12.13;;;4.38;;
47403;SDS011;33157;51.508;4.288;2023-08-31T23:10:29;10.88;;;3.78;;
47403;SDS011;33157;51.508;4.288;2023-08-31T23:15:29;10.95;;;3.55;;
47403;SDS011;33157;51.508;4.288;2023-08-31T23:20:30;13.65;;;4.07;;
47403;SDS011;33157;51.508;4.288;2023-08-31T23:25:30;9.68;;;3.83;;
47403;SDS011;33157;51.508;4.288;2023-08-31T23:30:31;14.15;;;4.28;;
47403;SDS011;33157;51.508;4.288;2023-08-31T23:35:32;12.93;;;4.60;;
47403;SDS011;33157;51.508;4.288;2023-08-31T23:40:32;11.70;;;3.75;;
47403;SDS011;33157;51.508;4.288;2023-08-31T23:45:33;12.73;;;4.20;;
47403;SDS011;33157;51.508;4.288;2023-08-31T23:50:34;9.75;;;4.13;;
47403;SDS011;33157;51.508;4.288;2023-08-31T23:55:37;12.75;;;4.50;;
